sensor_id;sensor_type;location;lat;lon;timestamp;P1;P2;P0
65012;PMS5003;51715;39.432;-77.518;2023-02-08T00:01:22;19;15;
65012;PMS5003;51715;39.432;-77.518;2023-02-08T00:03:51;17;16;
65012;PMS5003;51715;39.432;-77.518;2023-02-08T00:06:21;19;16;
65012;PMS5003;51715;39.432;-77.518;2023-02-08T00:08:49;14;12;
65012;PMS5003;51715;39.432;-77.518;2023-02-08T00:11:17;15;14;
65012;PMS5003;51715;39.432;-77.518;2023-02-08T00:13:46;14;13;
65012;PMS5003;51715;39.432;-77.518;2023-02-08T00:16:14;14;14;
65012;PMS5003;51715;39.432;-77.518;2023-02-08T00:18:43;14;14;
65012;PMS5003;51715;39.432;-77.518;2023-02-08T00:21:12;14;12;
65012;PMS5003;51715;39.432;-77.518;2023-02-08T00:23:42;19;18;
65012;PMS5003;51715;39.432;-77.518;2023-02-08T00:26:11;14;14;
65012;PMS5003;51715;39.432;-77.518;2023-02-08T00:28:42;12;12;
65012;PMS5003;51715;39.432;-77.518;2023-02-08T00:31:10;15;14;
65012;PMS5003;51715;39.432;-77.518;2023-02-08T00:33:39;13;12;
65012;PMS5003;51715;39.432;-77.518;2023-02-08T00:36:09;17;14;
65012;PMS5003;51715;39.432;-77.518;2023-02-08T00:38:39;17;15;
65012;PMS5003;51715;39.432;-77.518;2023-02-08T00:41:07;14;13;
65012;PMS5003;51715;39.432;-77.518;2023-02-08T00:43:36;17;17;
65012;PMS5003;51715;39.432;-77.518;2023-02-08T00:46:05;18;15;
65012;PMS5003;51715;39.432;-77.518;2023-02-08T00:48:34;18;18;
65012;PMS5003;51715;39.432;-77.518;2023-02-08T00:51:04;16;15;
65012;PMS5003;51715;39.432;-77.518;2023-02-08T00:53:35;21;20;
65012;PMS5003;51715;39.432;-77.518;2023-02-08T00:56:04;22;20;
65012;PMS5003;51715;39.432;-77.518;2023-02-08T00:58:33;21;20;
65012;PMS5003;51715;39.432;-77.518;2023-02-08T01:01:03;18;15;
65012;PMS5003;51715;39.432;-77.518;2023-02-08T01:03:32;22;19;
65012;PMS5003;51715;39.432;-77.518;2023-02-08T01:06:04;18;18;
65012;PMS5003;51715;39.432;-77.518;2023-02-08T01:08:39;17;16;
65012;PMS5003;51715;39.432;-77.518;2023-02-08T01:11:08;20;19;
65012;PMS5003;51715;39.432;-77.518;2023-02-08T01:13:39;20;17;
65012;PMS5003;51715;39.432;-77.518;2023-02-08T01:16:09;19;18;
65012;PMS5003;51715;39.432;-77.518;2023-02-08T01:18:42;24;21;
65012;PMS5003;51715;39.432;-77.518;2023-02-08T01:21:13;19;18;
65012;PMS5003;51715;39.432;-77.518;2023-02-08T01:23:43;17;17;
65012;PMS5003;51715;39.432;-77.518;2023-02-08T01:26:13;15;14;
65012;PMS5003;51715;39.432;-77.518;2023-02-08T01:28:44;14;14;
65012;PMS5003;51715;39.432;-77.518;2023-02-08T01:31:13;22;22;
65012;PMS5003;51715;39.432;-77.518;2023-02-08T01:33:43;21;19;
65012;PMS5003;51715;39.432;-77.518;2023-02-08T01:36:12;19;19;
65012;PMS5003;51715;39.432;-77.518;2023-02-08T01:38:41;23;22;
65012;PMS5003;51715;39.432;-77.518;2023-02-08T01:41:13;20;17;
65012;PMS5003;51715;39.432;-77.518;2023-02-08T01:45:55;18;18;
65012;PMS5003;51715;39.432;-77.518;2023-02-08T01:48:25;27;22;
65012;PMS5003;51715;39.432;-77.518;2023-02-08T01:50:57;18;16;
65012;PMS5003;51715;39.432;-77.518;2023-02-08T01:53:29;18;18;
65012;PMS5003;51715;39.432;-77.518;2023-02-08T01:56:00;14;14;
65012;PMS5003;51715;39.432;-77.518;2023-02-08T01:58:33;21;16;
65012;PMS5003;51715;39.432;-77.518;2023-02-08T02:01:06;20;18;
65012;PMS5003;51715;39.432;-77.518;2023-02-08T02:03:36;17;17;
65012;PMS5003;51715;39.432;-77.518;2023-02-08T02:06:07;19;18;
65012;PMS5003;51715;39.432;-77.518;2023-02-08T02:08:38;18;17;
65012;PMS5003;51715;39.432;-77.518;2023-02-08T02:11:23;19;19;
65012;PMS5003;51715;39.432;-77.518;2023-02-08T02:13:53;18;17;
65012;PMS5003;51715;39.432;-77.518;2023-02-08T02:16:22;24;21;
65012;PMS5003;51715;39.432;-77.518;2023-02-08T02:18:51;26;23;
65012;PMS5003;51715;39.432;-77.518;2023-02-08T02:21:24;21;20;
65012;PMS5003;51715;39.432;-77.518;2023-02-08T02:24:25;23;21;
65012;PMS5003;51715;39.432;-77.518;2023-02-08T02:27:37;30;26;
65012;PMS5003;51715;39.432;-77.518;2023-02-08T02:30:31;28;27;
65012;PMS5003;51715;39.432;-77.518;2023-02-08T02:33:24;27;27;
65012;PMS5003;51715;39.432;-77.518;2023-02-08T02:36:03;26;26;
65012;PMS5003;51715;39.432;-77.518;2023-02-08T02:38:44;29;26;
65012;PMS5003;51715;39.432;-77.518;2023-02-08T02:41:22;30;25;
65012;PMS5003;51715;39.432;-77.518;2023-02-08T02:44:00;27;24;
65012;PMS5003;51715;39.432;-77.518;2023-02-08T02:46:49;24;22;
65012;PMS5003;51715;39.432;-77.518;2023-02-08T02:49:24;28;25;
65012;PMS5003;51715;39.432;-77.518;2023-02-08T02:52:01;29;25;
65012;PMS5003;51715;39.432;-77.518;2023-02-08T02:54:32;28;26;
65012;PMS5003;51715;39.432;-77.518;2023-02-08T02:57:06;35;30;
65012;PMS5003;51715;39.432;-77.518;2023-02-08T02:59:40;29;25;
65012;PMS5003;51715;39.432;-77.518;2023-02-08T03:02:10;28;26;
65012;PMS5003;51715;39.432;-77.518;2023-02-08T03:04:46;29;24;
65012;PMS5003;51715;39.432;-77.518;2023-02-08T03:07:21;25;24;
65012;PMS5003;51715;39.432;-77.518;2023-02-08T03:10:07;24;22;
65012;PMS5003;51715;39.432;-77.518;2023-02-08T03:12:50;26;23;
65012;PMS5003;51715;39.432;-77.518;2023-02-08T03:15:28;30;28;
65012;PMS5003;51715;39.432;-77.518;2023-02-08T03:18:04;24;24;
65012;PMS5003;51715;39.432;-77.518;2023-02-08T03:20:45;26;24;
65012;PMS5003;51715;39.432;-77.518;2023-02-08T03:23:26;26;21;
65012;PMS5003;51715;39.432;-77.518;2023-02-08T03:25:59;27;25;
65012;PMS5003;51715;39.432;-77.518;2023-02-08T03:28:34;26;26;
65012;PMS5003;51715;39.432;-77.518;2023-02-08T03:31:10;25;22;
65012;PMS5003;51715;39.432;-77.518;2023-02-08T03:33:46;27;24;
65012;PMS5003;51715;39.432;-77.518;2023-02-08T03:36:19;21;21;
65012;PMS5003;51715;39.432;-77.518;2023-02-08T03:38:52;28;24;
65012;PMS5003;51715;39.432;-77.518;2023-02-08T03:41:23;20;20;
65012;PMS5003;51715;39.432;-77.518;2023-02-08T03:43:56;22;20;
65012;PMS5003;51715;39.432;-77.518;2023-02-08T03:46:29;24;23;
65012;PMS5003;51715;39.432;-77.518;2023-02-08T03:49:01;21;19;
65012;PMS5003;51715;39.432;-77.518;2023-02-08T03:51:34;20;20;
65012;PMS5003;51715;39.432;-77.518;2023-02-08T03:54:05;23;21;
65012;PMS5003;51715;39.432;-77.518;2023-02-08T03:56:39;20;19;
65012;PMS5003;51715;39.432;-77.518;2023-02-08T03:59:13;23;22;
65012;PMS5003;51715;39.432;-77.518;2023-02-08T04:01:48;22;22;
65012;PMS5003;51715;39.432;-77.518;2023-02-08T04:04:21;23;22;
65012;PMS5003;51715;39.432;-77.518;2023-02-08T04:06:51;27;25;
65012;PMS5003;51715;39.432;-77.518;2023-02-08T04:09:20;21;20;
65012;PMS5003;51715;39.432;-77.518;2023-02-08T04:11:48;23;21;
65012;PMS5003;51715;39.432;-77.518;2023-02-08T04:14:17;25;23;
65012;PMS5003;51715;39.432;-77.518;2023-02-08T04:16:45;20;19;
65012;PMS5003;51715;39.432;-77.518;2023-02-08T04:19:14;23;20;
65012;PMS5003;51715;39.432;-77.518;2023-02-08T04:21:41;21;21;
65012;PMS5003;51715;39.432;-77.518;2023-02-08T04:24:10;25;20;
65012;PMS5003;51715;39.432;-77.518;2023-02-08T04:26:38;21;21;
65012;PMS5003;51715;39.432;-77.518;2023-02-08T04:29:07;23;23;
65012;PMS5003;51715;39.432;-77.518;2023-02-08T04:31:35;18;17;
65012;PMS5003;51715;39.432;-77.518;2023-02-08T04:34:03;23;21;
65012;PMS5003;51715;39.432;-77.518;2023-02-08T04:36:32;24;23;
65012;PMS5003;51715;39.432;-77.518;2023-02-08T04:39:00;23;20;
65012;PMS5003;51715;39.432;-77.518;2023-02-08T04:41:29;23;21;
65012;PMS5003;51715;39.432;-77.518;2023-02-08T04:43:57;22;20;
65012;PMS5003;51715;39.432;-77.518;2023-02-08T04:46:25;22;21;
65012;PMS5003;51715;39.432;-77.518;2023-02-08T04:48:54;20;18;
65012;PMS5003;51715;39.432;-77.518;2023-02-08T04:51:22;22;20;
65012;PMS5003;51715;39.432;-77.518;2023-02-08T04:53:51;19;19;
65012;PMS5003;51715;39.432;-77.518;2023-02-08T04:56:18;17;17;
65012;PMS5003;51715;39.432;-77.518;2023-02-08T04:58:46;18;18;
65012;PMS5003;51715;39.432;-77.518;2023-02-08T05:04:01;20;17;
65012;PMS5003;51715;39.432;-77.518;2023-02-08T05:06:30;19;17;
65012;PMS5003;51715;39.432;-77.518;2023-02-08T05:08:58;20;19;
65012;PMS5003;51715;39.432;-77.518;2023-02-08T05:11:26;18;18;
65012;PMS5003;51715;39.432;-77.518;2023-02-08T05:13:56;16;14;
65012;PMS5003;51715;39.432;-77.518;2023-02-08T05:16:24;20;17;
65012;PMS5003;51715;39.432;-77.518;2023-02-08T05:18:54;21;21;
65012;PMS5003;51715;39.432;-77.518;2023-02-08T05:21:23;15;15;
65012;PMS5003;51715;39.432;-77.518;2023-02-08T05:23:51;16;16;
65012;PMS5003;51715;39.432;-77.518;2023-02-08T05:26:20;23;21;
65012;PMS5003;51715;39.432;-77.518;2023-02-08T05:28:49;15;15;
65012;PMS5003;51715;39.432;-77.518;2023-02-08T05:31:18;18;16;
65012;PMS5003;51715;39.432;-77.518;2023-02-08T05:33:49;21;19;
65012;PMS5003;51715;39.432;-77.518;2023-02-08T05:36:18;22;20;
65012;PMS5003;51715;39.432;-77.518;2023-02-08T05:38:46;22;19;
65012;PMS5003;51715;39.432;-77.518;2023-02-08T05:41:15;18;15;
65012;PMS5003;51715;39.432;-77.518;2023-02-08T05:43:44;15;15;
65012;PMS5003;51715;39.432;-77.518;2023-02-08T05:46:12;17;17;
65012;PMS5003;51715;39.432;-77.518;2023-02-08T05:48:41;17;15;
65012;PMS5003;51715;39.432;-77.518;2023-02-08T05:51:09;20;18;
65012;PMS5003;51715;39.432;-77.518;2023-02-08T05:53:38;20;20;
65012;PMS5003;51715;39.432;-77.518;2023-02-08T05:56:06;20;17;
65012;PMS5003;51715;39.432;-77.518;2023-02-08T05:58:35;21;20;
65012;PMS5003;51715;39.432;-77.518;2023-02-08T06:01:06;17;17;
65012;PMS5003;51715;39.432;-77.518;2023-02-08T06:03:36;20;19;
65012;PMS5003;51715;39.432;-77.518;2023-02-08T06:06:04;20;17;
65012;PMS5003;51715;39.432;-77.518;2023-02-08T06:08:32;18;18;
65012;PMS5003;51715;39.432;-77.518;2023-02-08T06:11:00;17;16;
65012;PMS5003;51715;39.432;-77.518;2023-02-08T06:13:28;18;17;
65012;PMS5003;51715;39.432;-77.518;2023-02-08T06:15:56;20;20;
65012;PMS5003;51715;39.432;-77.518;2023-02-08T06:18:25;24;22;
65012;PMS5003;51715;39.432;-77.518;2023-02-08T06:20:53;19;18;
65012;PMS5003;51715;39.432;-77.518;2023-02-08T06:23:21;17;17;
65012;PMS5003;51715;39.432;-77.518;2023-02-08T06:25:50;25;24;
65012;PMS5003;51715;39.432;-77.518;2023-02-08T06:28:18;22;22;
65012;PMS5003;51715;39.432;-77.518;2023-02-08T06:30:47;19;19;
65012;PMS5003;51715;39.432;-77.518;2023-02-08T06:33:15;22;20;
65012;PMS5003;51715;39.432;-77.518;2023-02-08T06:35:44;18;17;
65012;PMS5003;51715;39.432;-77.518;2023-02-08T06:38:12;22;18;
65012;PMS5003;51715;39.432;-77.518;2023-02-08T06:40:41;20;18;
65012;PMS5003;51715;39.432;-77.518;2023-02-08T06:43:09;18;18;
65012;PMS5003;51715;39.432;-77.518;2023-02-08T06:45:37;24;22;
65012;PMS5003;51715;39.432;-77.518;2023-02-08T06:48:05;19;19;
65012;PMS5003;51715;39.432;-77.518;2023-02-08T06:50:33;20;19;
65012;PMS5003;51715;39.432;-77.518;2023-02-08T06:53:02;26;25;
65012;PMS5003;51715;39.432;-77.518;2023-02-08T06:55:30;22;20;
65012;PMS5003;51715;39.432;-77.518;2023-02-08T06:57:59;17;17;
65012;PMS5003;51715;39.432;-77.518;2023-02-08T07:00:27;22;22;
65012;PMS5003;51715;39.432;-77.518;2023-02-08T07:02:55;23;23;
65012;PMS5003;51715;39.432;-77.518;2023-02-08T07:05:24;26;23;
65012;PMS5003;51715;39.432;-77.518;2023-02-08T07:07:53;23;23;
65012;PMS5003;51715;39.432;-77.518;2023-02-08T07:10:22;23;21;
65012;PMS5003;51715;39.432;-77.518;2023-02-08T07:12:50;28;26;
65012;PMS5003;51715;39.432;-77.518;2023-02-08T07:15:19;27;26;
65012;PMS5003;51715;39.432;-77.518;2023-02-08T07:17:46;25;23;
65012;PMS5003;51715;39.432;-77.518;2023-02-08T07:20:15;23;21;
65012;PMS5003;51715;39.432;-77.518;2023-02-08T07:22:43;26;22;
65012;PMS5003;51715;39.432;-77.518;2023-02-08T07:25:11;29;24;
65012;PMS5003;51715;39.432;-77.518;2023-02-08T07:27:39;20;20;
65012;PMS5003;51715;39.432;-77.518;2023-02-08T07:30:07;23;22;
65012;PMS5003;51715;39.432;-77.518;2023-02-08T07:32:36;26;23;
65012;PMS5003;51715;39.432;-77.518;2023-02-08T07:35:05;24;23;
65012;PMS5003;51715;39.432;-77.518;2023-02-08T07:37:34;20;18;
65012;PMS5003;51715;39.432;-77.518;2023-02-08T07:40:07;23;22;
65012;PMS5003;51715;39.432;-77.518;2023-02-08T07:42:37;26;24;
65012;PMS5003;51715;39.432;-77.518;2023-02-08T07:45:05;20;19;
65012;PMS5003;51715;39.432;-77.518;2023-02-08T07:47:33;26;23;
65012;PMS5003;51715;39.432;-77.518;2023-02-08T07:50:02;23;21;
65012;PMS5003;51715;39.432;-77.518;2023-02-08T07:52:30;17;17;
65012;PMS5003;51715;39.432;-77.518;2023-02-08T07:54:58;21;18;
65012;PMS5003;51715;39.432;-77.518;2023-02-08T07:57:27;24;23;
65012;PMS5003;51715;39.432;-77.518;2023-02-08T07:59:55;22;20;
65012;PMS5003;51715;39.432;-77.518;2023-02-08T08:02:23;20;17;
65012;PMS5003;51715;39.432;-77.518;2023-02-08T08:04:51;22;21;
65012;PMS5003;51715;39.432;-77.518;2023-02-08T08:07:20;21;20;
65012;PMS5003;51715;39.432;-77.518;2023-02-08T08:09:48;14;14;
65012;PMS5003;51715;39.432;-77.518;2023-02-08T08:12:15;23;21;
65012;PMS5003;51715;39.432;-77.518;2023-02-08T08:14:45;20;20;
65012;PMS5003;51715;39.432;-77.518;2023-02-08T08:17:13;17;17;
65012;PMS5003;51715;39.432;-77.518;2023-02-08T08:19:42;22;22;
65012;PMS5003;51715;39.432;-77.518;2023-02-08T08:22:11;20;19;
65012;PMS5003;51715;39.432;-77.518;2023-02-08T08:24:39;24;23;
65012;PMS5003;51715;39.432;-77.518;2023-02-08T08:27:07;20;18;
65012;PMS5003;51715;39.432;-77.518;2023-02-08T08:29:36;18;18;
65012;PMS5003;51715;39.432;-77.518;2023-02-08T08:32:05;25;24;
65012;PMS5003;51715;39.432;-77.518;2023-02-08T08:34:34;24;22;
65012;PMS5003;51715;39.432;-77.518;2023-02-08T08:37:02;22;21;
65012;PMS5003;51715;39.432;-77.518;2023-02-08T08:39:30;24;23;
65012;PMS5003;51715;39.432;-77.518;2023-02-08T08:41:58;25;22;
65012;PMS5003;51715;39.432;-77.518;2023-02-08T08:44:26;22;20;
65012;PMS5003;51715;39.432;-77.518;2023-02-08T08:46:55;21;21;
65012;PMS5003;51715;39.432;-77.518;2023-02-08T08:49:25;24;24;
65012;PMS5003;51715;39.432;-77.518;2023-02-08T08:51:55;28;26;
65012;PMS5003;51715;39.432;-77.518;2023-02-08T08:54:23;25;22;
65012;PMS5003;51715;39.432;-77.518;2023-02-08T08:56:52;23;22;
65012;PMS5003;51715;39.432;-77.518;2023-02-08T08:59:20;26;23;
65012;PMS5003;51715;39.432;-77.518;2023-02-08T09:01:49;28;27;
65012;PMS5003;51715;39.432;-77.518;2023-02-08T09:04:17;23;21;
65012;PMS5003;51715;39.432;-77.518;2023-02-08T09:06:45;26;23;
65012;PMS5003;51715;39.432;-77.518;2023-02-08T09:09:14;27;25;
65012;PMS5003;51715;39.432;-77.518;2023-02-08T09:11:43;27;24;
65012;PMS5003;51715;39.432;-77.518;2023-02-08T09:14:12;28;27;
65012;PMS5003;51715;39.432;-77.518;2023-02-08T09:16:40;26;26;
65012;PMS5003;51715;39.432;-77.518;2023-02-08T09:19:09;28;26;
65012;PMS5003;51715;39.432;-77.518;2023-02-08T09:21:37;25;22;
65012;PMS5003;51715;39.432;-77.518;2023-02-08T09:24:06;30;30;
65012;PMS5003;51715;39.432;-77.518;2023-02-08T09:26:35;29;27;
65012;PMS5003;51715;39.432;-77.518;2023-02-08T09:29:03;33;30;
65012;PMS5003;51715;39.432;-77.518;2023-02-08T09:31:32;30;26;
65012;PMS5003;51715;39.432;-77.518;2023-02-08T09:34:02;24;24;
65012;PMS5003;51715;39.432;-77.518;2023-02-08T09:36:33;27;25;
65012;PMS5003;51715;39.432;-77.518;2023-02-08T09:39:04;23;22;
65012;PMS5003;51715;39.432;-77.518;2023-02-08T09:41:38;34;27;
65012;PMS5003;51715;39.432;-77.518;2023-02-08T09:44:19;24;19;
65012;PMS5003;51715;39.432;-77.518;2023-02-08T09:46:55;29;26;
65012;PMS5003;51715;39.432;-77.518;2023-02-08T09:49:29;22;22;
65012;PMS5003;51715;39.432;-77.518;2023-02-08T09:52:03;27;25;
65012;PMS5003;51715;39.432;-77.518;2023-02-08T09:54:38;24;22;
65012;PMS5003;51715;39.432;-77.518;2023-02-08T09:57:11;29;28;
65012;PMS5003;51715;39.432;-77.518;2023-02-08T09:59:45;31;26;
65012;PMS5003;51715;39.432;-77.518;2023-02-08T10:02:21;24;21;
65012;PMS5003;51715;39.432;-77.518;2023-02-08T10:04:57;27;25;
65012;PMS5003;51715;39.432;-77.518;2023-02-08T10:07:28;23;20;
65012;PMS5003;51715;39.432;-77.518;2023-02-08T10:09:59;28;26;
65012;PMS5003;51715;39.432;-77.518;2023-02-08T10:12:33;24;23;
65012;PMS5003;51715;39.432;-77.518;2023-02-08T10:15:14;20;20;
65012;PMS5003;51715;39.432;-77.518;2023-02-08T10:18:00;23;20;
65012;PMS5003;51715;39.432;-77.518;2023-02-08T10:20:42;20;19;
65012;PMS5003;51715;39.432;-77.518;2023-02-08T10:23:29;21;20;
65012;PMS5003;51715;39.432;-77.518;2023-02-08T10:26:11;21;18;
65012;PMS5003;51715;39.432;-77.518;2023-02-08T10:28:48;23;21;
65012;PMS5003;51715;39.432;-77.518;2023-02-08T10:31:30;18;18;
65012;PMS5003;51715;39.432;-77.518;2023-02-08T10:34:15;21;21;
65012;PMS5003;51715;39.432;-77.518;2023-02-08T10:36:55;26;21;
65012;PMS5003;51715;39.432;-77.518;2023-02-08T10:39:25;19;18;
65012;PMS5003;51715;39.432;-77.518;2023-02-08T10:41:56;19;18;
65012;PMS5003;51715;39.432;-77.518;2023-02-08T10:44:26;22;21;
65012;PMS5003;51715;39.432;-77.518;2023-02-08T10:47:06;24;20;
65012;PMS5003;51715;39.432;-77.518;2023-02-08T10:49:43;26;21;
65012;PMS5003;51715;39.432;-77.518;2023-02-08T10:52:19;19;19;
65012;PMS5003;51715;39.432;-77.518;2023-02-08T10:54:46;24;22;
65012;PMS5003;51715;39.432;-77.518;2023-02-08T10:57:16;23;21;
65012;PMS5003;51715;39.432;-77.518;2023-02-08T10:59:48;21;21;
65012;PMS5003;51715;39.432;-77.518;2023-02-08T11:02:20;18;17;
65012;PMS5003;51715;39.432;-77.518;2023-02-08T11:04:57;20;16;
65012;PMS5003;51715;39.432;-77.518;2023-02-08T11:07:28;19;17;
65012;PMS5003;51715;39.432;-77.518;2023-02-08T11:10:13;18;18;
65012;PMS5003;51715;39.432;-77.518;2023-02-08T11:12:55;22;20;
65012;PMS5003;51715;39.432;-77.518;2023-02-08T11:15:25;20;17;
65012;PMS5003;51715;39.432;-77.518;2023-02-08T11:17:57;18;17;
65012;PMS5003;51715;39.432;-77.518;2023-02-08T11:20:30;24;19;
65012;PMS5003;51715;39.432;-77.518;2023-02-08T11:23:02;21;18;
65012;PMS5003;51715;39.432;-77.518;2023-02-08T11:25:33;21;20;
65012;PMS5003;51715;39.432;-77.518;2023-02-08T11:28:04;18;15;
65012;PMS5003;51715;39.432;-77.518;2023-02-08T11:30:53;19;17;
65012;PMS5003;51715;39.432;-77.518;2023-02-08T11:33:24;16;15;
65012;PMS5003;51715;39.432;-77.518;2023-02-08T11:35:56;19;17;
65012;PMS5003;51715;39.432;-77.518;2023-02-08T11:38:27;23;21;
65012;PMS5003;51715;39.432;-77.518;2023-02-08T11:40:58;22;19;
65012;PMS5003;51715;39.432;-77.518;2023-02-08T11:43:29;19;18;
65012;PMS5003;51715;39.432;-77.518;2023-02-08T11:46:00;17;16;
65012;PMS5003;51715;39.432;-77.518;2023-02-08T11:48:35;22;18;
65012;PMS5003;51715;39.432;-77.518;2023-02-08T11:51:08;26;20;
65012;PMS5003;51715;39.432;-77.518;2023-02-08T11:53:40;20;18;
65012;PMS5003;51715;39.432;-77.518;2023-02-08T11:56:15;20;20;
65012;PMS5003;51715;39.432;-77.518;2023-02-08T11:59:02;22;20;
65012;PMS5003;51715;39.432;-77.518;2023-02-08T12:01:33;21;17;
65012;PMS5003;51715;39.432;-77.518;2023-02-08T12:04:04;18;18;
65012;PMS5003;51715;39.432;-77.518;2023-02-08T12:07:11;23;21;
65012;PMS5003;51715;39.432;-77.518;2023-02-08T12:09:53;18;17;
65012;PMS5003;51715;39.432;-77.518;2023-02-08T12:14:45;16;15;
65012;PMS5003;51715;39.432;-77.518;2023-02-08T12:17:45;16;15;
65012;PMS5003;51715;39.432;-77.518;2023-02-08T12:20:31;22;18;
65012;PMS5003;51715;39.432;-77.518;2023-02-08T12:23:10;22;19;
65012;PMS5003;51715;39.432;-77.518;2023-02-08T12:25:50;20;16;
65012;PMS5003;51715;39.432;-77.518;2023-02-08T12:28:30;16;14;
65012;PMS5003;51715;39.432;-77.518;2023-02-08T12:31:11;16;16;
65012;PMS5003;51715;39.432;-77.518;2023-02-08T12:33:51;16;15;
65012;PMS5003;51715;39.432;-77.518;2023-02-08T12:36:38;15;14;
65012;PMS5003;51715;39.432;-77.518;2023-02-08T12:39:28;14;14;
65012;PMS5003;51715;39.432;-77.518;2023-02-08T12:42:12;18;17;
65012;PMS5003;51715;39.432;-77.518;2023-02-08T12:44:55;14;14;
65012;PMS5003;51715;39.432;-77.518;2023-02-08T12:47:39;17;16;
65012;PMS5003;51715;39.432;-77.518;2023-02-08T12:50:21;16;16;
65012;PMS5003;51715;39.432;-77.518;2023-02-08T12:52:56;19;17;
65012;PMS5003;51715;39.432;-77.518;2023-02-08T12:55:33;23;21;
65012;PMS5003;51715;39.432;-77.518;2023-02-08T12:58:09;15;13;
65012;PMS5003;51715;39.432;-77.518;2023-02-08T13:00:48;20;17;
65012;PMS5003;51715;39.432;-77.518;2023-02-08T13:03:23;22;22;
65012;PMS5003;51715;39.432;-77.518;2023-02-08T13:05:58;21;20;
65012;PMS5003;51715;39.432;-77.518;2023-02-08T13:08:29;25;21;
65012;PMS5003;51715;39.432;-77.518;2023-02-08T13:11:05;19;17;
65012;PMS5003;51715;39.432;-77.518;2023-02-08T13:13:41;22;19;
65012;PMS5003;51715;39.432;-77.518;2023-02-08T13:16:15;23;22;
65012;PMS5003;51715;39.432;-77.518;2023-02-08T13:18:47;25;23;
65012;PMS5003;51715;39.432;-77.518;2023-02-08T13:21:23;23;22;
65012;PMS5003;51715;39.432;-77.518;2023-02-08T13:23:55;24;21;
65012;PMS5003;51715;39.432;-77.518;2023-02-08T13:26:27;16;16;
65012;PMS5003;51715;39.432;-77.518;2023-02-08T13:29:04;18;17;
65012;PMS5003;51715;39.432;-77.518;2023-02-08T13:31:44;19;18;
65012;PMS5003;51715;39.432;-77.518;2023-02-08T13:34:17;22;19;
65012;PMS5003;51715;39.432;-77.518;2023-02-08T13:36:51;17;17;
65012;PMS5003;51715;39.432;-77.518;2023-02-08T13:39:27;20;18;
65012;PMS5003;51715;39.432;-77.518;2023-02-08T13:42:01;17;15;
65012;PMS5003;51715;39.432;-77.518;2023-02-08T13:44:33;18;17;
65012;PMS5003;51715;39.432;-77.518;2023-02-08T13:47:04;13;13;
65012;PMS5003;51715;39.432;-77.518;2023-02-08T13:49:41;17;17;
65012;PMS5003;51715;39.432;-77.518;2023-02-08T13:52:49;21;21;
65012;PMS5003;51715;39.432;-77.518;2023-02-08T13:55:55;20;16;
65012;PMS5003;51715;39.432;-77.518;2023-02-08T13:58:28;16;16;
65012;PMS5003;51715;39.432;-77.518;2023-02-08T14:01:13;16;16;
65012;PMS5003;51715;39.432;-77.518;2023-02-08T14:03:43;13;13;
65012;PMS5003;51715;39.432;-77.518;2023-02-08T14:06:44;17;17;
65012;PMS5003;51715;39.432;-77.518;2023-02-08T14:09:18;17;15;
65012;PMS5003;51715;39.432;-77.518;2023-02-08T14:11:52;16;15;
65012;PMS5003;51715;39.432;-77.518;2023-02-08T14:14:27;15;14;
65012;PMS5003;51715;39.432;-77.518;2023-02-08T14:17:08;14;14;
65012;PMS5003;51715;39.432;-77.518;2023-02-08T14:19:43;14;14;
65012;PMS5003;51715;39.432;-77.518;2023-02-08T14:22:22;16;15;
65012;PMS5003;51715;39.432;-77.518;2023-02-08T14:25:00;18;17;
65012;PMS5003;51715;39.432;-77.518;2023-02-08T14:27:34;17;16;
65012;PMS5003;51715;39.432;-77.518;2023-02-08T14:30:08;16;15;
65012;PMS5003;51715;39.432;-77.518;2023-02-08T14:32:49;18;16;
65012;PMS5003;51715;39.432;-77.518;2023-02-08T14:35:34;17;14;
65012;PMS5003;51715;39.432;-77.518;2023-02-08T14:38:47;19;18;
65012;PMS5003;51715;39.432;-77.518;2023-02-08T14:42:52;13;12;
65012;PMS5003;51715;39.432;-77.518;2023-02-08T14:45:27;17;17;
65012;PMS5003;51715;39.432;-77.518;2023-02-08T14:47:59;13;13;
65012;PMS5003;51715;39.432;-77.518;2023-02-08T14:50:52;16;15;
65012;PMS5003;51715;39.432;-77.518;2023-02-08T14:53:43;14;14;
65012;PMS5003;51715;39.432;-77.518;2023-02-08T14:56:18;8;8;
65012;PMS5003;51715;39.432;-77.518;2023-02-08T14:58:50;11;10;
65012;PMS5003;51715;39.432;-77.518;2023-02-08T15:01:39;8;7;
65012;PMS5003;51715;39.432;-77.518;2023-02-08T15:04:10;13;13;
65012;PMS5003;51715;39.432;-77.518;2023-02-08T15:07:16;12;12;
65012;PMS5003;51715;39.432;-77.518;2023-02-08T15:09:55;12;12;
65012;PMS5003;51715;39.432;-77.518;2023-02-08T15:12:25;10;10;
65012;PMS5003;51715;39.432;-77.518;2023-02-08T15:14:56;9;9;
65012;PMS5003;51715;39.432;-77.518;2023-02-08T15:17:29;11;11;
65012;PMS5003;51715;39.432;-77.518;2023-02-08T15:20:00;11;11;
65012;PMS5003;51715;39.432;-77.518;2023-02-08T15:22:34;11;11;
65012;PMS5003;51715;39.432;-77.518;2023-02-08T15:25:13;11;10;
65012;PMS5003;51715;39.432;-77.518;2023-02-08T15:27:49;14;13;
65012;PMS5003;51715;39.432;-77.518;2023-02-08T15:30:28;10;10;
65012;PMS5003;51715;39.432;-77.518;2023-02-08T15:33:01;8;8;
65012;PMS5003;51715;39.432;-77.518;2023-02-08T15:35:33;7;7;
65012;PMS5003;51715;39.432;-77.518;2023-02-08T15:38:02;8;8;
65012;PMS5003;51715;39.432;-77.518;2023-02-08T15:40:36;9;9;
65012;PMS5003;51715;39.432;-77.518;2023-02-08T15:43:10;10;8;
65012;PMS5003;51715;39.432;-77.518;2023-02-08T15:45:39;12;12;
65012;PMS5003;51715;39.432;-77.518;2023-02-08T15:48:09;8;8;
65012;PMS5003;51715;39.432;-77.518;2023-02-08T15:50:39;10;9;
65012;PMS5003;51715;39.432;-77.518;2023-02-08T15:53:10;9;9;
65012;PMS5003;51715;39.432;-77.518;2023-02-08T15:55:43;7;7;
65012;PMS5003;51715;39.432;-77.518;2023-02-08T15:58:17;7;6;
65012;PMS5003;51715;39.432;-77.518;2023-02-08T16:00:53;8;8;
65012;PMS5003;51715;39.432;-77.518;2023-02-08T16:03:24;7;6;
65012;PMS5003;51715;39.432;-77.518;2023-02-08T16:05:55;8;8;
65012;PMS5003;51715;39.432;-77.518;2023-02-08T16:08:26;8;6;
65012;PMS5003;51715;39.432;-77.518;2023-02-08T16:10:56;7;7;
65012;PMS5003;51715;39.432;-77.518;2023-02-08T16:13:27;9;9;
65012;PMS5003;51715;39.432;-77.518;2023-02-08T16:16:13;8;8;
65012;PMS5003;51715;39.432;-77.518;2023-02-08T16:18:45;6;6;
65012;PMS5003;51715;39.432;-77.518;2023-02-08T16:21:19;7;7;
65012;PMS5003;51715;39.432;-77.518;2023-02-08T16:23:55;9;9;
65012;PMS5003;51715;39.432;-77.518;2023-02-08T16:26:26;7;7;
65012;PMS5003;51715;39.432;-77.518;2023-02-08T16:28:57;7;7;
65012;PMS5003;51715;39.432;-77.518;2023-02-08T16:31:27;12;8;
65012;PMS5003;51715;39.432;-77.518;2023-02-08T16:34:00;9;9;